Time;durP1;ratioP1;P1;durP2;ratioP2;P2;SDS_P1;SDS_P2;PMS_P1;PMS_P2;Temp;Humidity;BMP_temperature;BMP_pressure;BME280_temperature;BME280_humidity;BME280_pressure;Samples;Min_cycle;Max_cycle;Signal;HPM_P1;HPM_P2
2022/10/17 00:01:05;;;;;;;1.15;0.80;;;12.30;99.90;;;;;;4879773;29;20056;-78
2022/10/17 00:03:32;;;;;;;1.08;0.63;;;12.10;99.90;;;;;;4876734;29;20523;-78
2022/10/17 00:05:58;;;;;;;1.55;0.70;;;12.00;99.90;;;;;;4892299;29;20032;-78
2022/10/17 00:08:23;;;;;;;1.33;0.80;;;12.10;99.90;;;;;;4893525;29;20103;-78
2022/10/17 00:11:02;;;;;;;2.40;1.00;;;12.20;99.90;;;;;;4875103;29;20123;-78
2022/10/17 00:13:28;;;;;;;2.30;0.90;;;12.20;99.90;;;;;;4884982;29;20056;-78
2022/10/17 00:15:54;;;;;;;;;;;12.10;99.90;;;;;;4894068;29;20048;-78
2022/10/17 00:18:20;;;;;;;1.45;0.80;;;12.40;99.90;;;;;;4877230;29;20339;-78
2022/10/17 00:20:45;;;;;;;3.08;0.80;;;12.10;99.90;;;;;;4893662;29;20060;-78
2022/10/17 00:23:11;;;;;;;5.45;1.13;;;12.40;99.90;;;;;;4901870;29;20075;-78
2022/10/17 00:25:37;;;;;;;2.55;0.80;;;12.20;99.90;;;;;;4910130;29;20035;-78
2022/10/17 00:28:03;;;;;;;1.70;0.80;;;12.40;99.90;;;;;;4883418;29;20056;-78
2022/10/17 00:30:28;;;;;;;2.78;1.00;;;12.50;99.90;;;;;;4905923;29;20068;-78
2022/10/17 00:32:54;;;;;;;2.78;1.20;;;12.50;99.90;;;;;;4894698;29;20062;-78
2022/10/17 00:35:20;;;;;;;2.28;1.13;;;12.30;99.90;;;;;;4892875;29;20569;-79
2022/10/17 00:37:45;;;;;;;1.85;1.00;;;12.50;99.90;;;;;;4892980;29;20087;-78
2022/10/17 00:40:12;;;;;;;2.85;1.25;;;12.30;99.90;;;;;;4877697;29;20040;-78
2022/10/17 00:42:37;;;;;;;;;;;12.40;99.90;;;;;;4893379;29;20044;-78
2022/10/17 00:45:22;;;;;;;2.28;1.13;;;12.30;99.90;;;;;;4878117;29;19924;-79
2022/10/17 00:47:53;;;;;;;2.22;0.90;;;12.50;99.90;;;;;;4894471;29;20079;-78
2022/10/17 00:50:19;;;;;;;2.97;1.10;;;12.30;99.90;;;;;;4893856;29;20108;-78
2022/10/17 00:52:47;;;;;;;2.45;1.00;;;12.40;99.90;;;;;;4894139;29;20060;-78
2022/10/17 00:55:24;;;;;;;3.22;1.08;;;12.60;99.90;;;;;;4894454;29;20056;-78
2022/10/17 00:57:51;;;;;;;3.05;1.10;;;12.50;99.90;;;;;;4895605;29;20040;-78
2022/10/17 01:00:18;;;;;;;3.83;1.00;;;12.50;99.90;;;;;;4898373;29;20049;-79
2022/10/17 01:02:44;;;;;;;3.15;1.48;;;12.70;99.90;;;;;;4898257;29;20131;-78
2022/10/17 01:05:11;;;;;;;2.15;1.05;;;12.70;99.90;;;;;;4880313;29;20056;-78
2022/10/17 01:07:38;;;;;;;;;;;12.60;99.90;;;;;;4898549;29;20041;-78
2022/10/17 01:10:05;;;;;;;2.83;1.00;;;12.60;99.90;;;;;;4896107;29;19975;-78
2022/10/17 01:13:07;;;;;;;2.08;1.05;;;12.60;99.90;;;;;;4897650;29;20049;-78
2022/10/17 01:15:51;;;;;;;3.47;0.98;;;12.60;99.90;;;;;;4871297;29;20102;-78
2022/10/17 01:18:31;;;;;;;1.50;0.77;;;12.70;99.90;;;;;;4884412;29;20052;-78
2022/10/17 01:21:02;;;;;;;3.63;1.00;;;12.70;99.90;;;;;;4897185;29;20060;-78
2022/10/17 01:24:17;;;;;;;1.52;0.85;;;12.80;99.90;;;;;;4896400;29;20431;-78
2022/10/17 01:27:18;;;;;;;1.92;1.00;;;12.90;99.90;;;;;;4896819;29;20060;-78
2022/10/17 01:29:50;;;;;;;3.58;1.20;;;12.90;99.90;;;;;;4896417;29;20079;-78
2022/10/17 01:32:33;;;;;;;4.20;1.15;;;12.80;99.90;;;;;;4896536;29;20049;-78
2022/10/17 01:35:06;;;;;;;5.57;1.50;;;13.00;99.90;;;;;;4909370;29;20094;-78
2022/10/17 01:37:56;;;;;;;3.42;1.27;;;13.00;99.90;;;;;;4919257;29;20052;-79
2022/10/17 01:40:29;;;;;;;1.95;0.90;;;13.00;99.90;;;;;;4881780;29;20060;-78
2022/10/17 01:43:15;;;;;;;2.47;0.80;;;12.90;99.90;;;;;;4898395;29;20067;-78
2022/10/17 01:45:48;;;;;;;1.85;0.80;;;12.90;99.90;;;;;;4916014;29;20383;-78
2022/10/17 01:48:19;;;;;;;1.30;0.80;;;13.20;99.90;;;;;;4883801;29;20075;-78
2022/10/17 01:50:53;;;;;;;4.97;1.17;;;12.90;99.90;;;;;;4900153;29;20056;-78
2022/10/17 01:53:32;;;;;;;3.60;1.30;;;13.00;99.90;;;;;;4900110;29;20383;-78
2022/10/17 01:56:01;;;;;;;2.95;1.17;;;13.00;99.90;;;;;;4891564;29;20419;-78
2022/10/17 01:58:43;;;;;;;2.35;1.23;;;13.00;99.90;;;;;;4895950;29;20060;-78
2022/10/17 02:01:11;;;;;;;2.17;1.00;;;13.30;99.90;;;;;;4905065;29;20434;-78
2022/10/17 02:03:40;;;;;;;2.60;1.40;;;13.00;99.90;;;;;;4894734;29;20064;-79
2022/10/17 02:06:06;;;;;;;3.50;1.45;;;13.20;99.90;;;;;;4898999;29;20050;-78
2022/10/17 02:08:44;;;;;;;2.88;1.60;;;13.00;99.90;;;;;;4897038;29;20114;-79
2022/10/17 02:11:14;;;;;;;3.97;1.65;;;13.00;99.90;;;;;;4890411;29;20128;-79
2022/10/17 02:13:49;;;;;;;2.78;1.50;;;13.00;99.90;;;;;;4897550;29;20042;-78
2022/10/17 02:16:27;;;;;;;3.00;1.20;;;12.90;99.90;;;;;;4899542;29;20130;-79
2022/10/17 02:19:15;;;;;;;2.97;1.10;;;12.90;99.90;;;;;;4899852;29;20373;-78
2022/10/17 02:21:46;;;;;;;2.97;1.30;;;13.10;99.90;;;;;;4897229;29;20044;-79
2022/10/17 02:24:14;;;;;;;2.47;1.05;;;12.90;99.90;;;;;;4897377;29;20124;-78
2022/10/17 02:26:51;;;;;;;2.17;1.00;;;13.10;99.90;;;;;;4883100;29;20070;-78
2022/10/17 02:29:24;;;;;;;1.90;0.98;;;13.10;99.90;;;;;;4896762;29;20044;-78
2022/10/17 02:32:09;;;;;;;2.28;1.00;;;13.10;99.90;;;;;;4895746;29;20043;-78
2022/10/17 02:34:44;;;;;;;1.95;1.20;;;12.80;99.90;;;;;;4912946;29;20047;-79
2022/10/17 02:37:14;;;;;;;2.03;1.20;;;13.00;99.90;;;;;;4902001;29;20052;-79
2022/10/17 02:39:42;;;;;;;2.63;1.13;;;13.00;99.90;;;;;;4882682;29;20055;-78
2022/10/17 02:42:10;;;;;;;2.22;1.10;;;12.70;99.90;;;;;;4899355;29;20095;-78
2022/10/17 02:44:38;;;;;;;2.17;1.40;;;13.00;99.90;;;;;;4899084;29;20068;-78
2022/10/17 02:47:24;;;;;;;3.65;1.20;;;12.80;99.90;;;;;;4896501;29;20067;-78
2022/10/17 02:49:52;;;;;;;2.60;1.35;;;12.70;99.90;;;;;;4898845;29;20036;-78
2022/10/17 02:52:39;;;;;;;2.38;1.38;;;12.90;99.90;;;;;;4898922;29;20036;-78
2022/10/17 02:55:18;;;;;;;1.40;1.02;;;12.80;99.90;;;;;;4898088;29;20040;-78
2022/10/17 02:57:48;;;;;;;1.15;1.02;;;12.80;99.90;;;;;;4899142;29;20084;-79
2022/10/17 03:00:16;;;;;;;2.65;1.10;;;12.80;99.90;;;;;;4897810;29;20041;-78
2022/10/17 03:02:48;;;;;;;1.52;0.90;;;12.80;99.90;;;;;;4898904;29;20092;-79
2022/10/17 03:05:17;;;;;;;3.13;1.42;;;13.00;99.90;;;;;;4906404;29;20055;-78
2022/10/17 03:07:43;;;;;;;3.08;1.30;;;12.80;99.90;;;;;;4883205;29;20056;-78
2022/10/17 03:10:09;;;;;;;2.33;1.15;;;13.00;99.90;;;;;;4897651;29;20062;-78
2022/10/17 03:12:35;;;;;;;2.10;1.33;;;13.00;99.90;;;;;;4898766;29;20130;-78
2022/10/17 03:15:01;;;;;;;1.73;1.40;;;13.10;99.90;;;;;;4883158;29;20468;-78
2022/10/17 03:17:26;;;;;;;2.20;1.30;;;12.90;99.90;;;;;;4895660;29;20056;-78
2022/10/17 03:19:52;;;;;;;2.28;1.20;;;12.80;99.90;;;;;;4895157;29;20477;-78
2022/10/17 03:22:18;;;;;;;2.22;1.23;;;12.70;99.90;;;;;;4895915;29;20111;-78
2022/10/17 03:24:43;;;;;;;2.30;1.40;;;13.00;99.90;;;;;;4895389;29;20060;-78
2022/10/17 03:27:09;;;;;;;2.17;1.20;;;12.90;99.90;;;;;;4879977;29;20051;-78
2022/10/17 03:29:35;;;;;;;1.58;1.15;;;12.60;99.90;;;;;;4898133;29;20047;-78
2022/10/17 03:32:00;;;;;;;2.13;1.33;;;12.60;99.90;;;;;;4896628;29;20032;-78
2022/10/17 03:34:26;;;;;;;2.28;1.30;;;13.00;99.90;;;;;;4895460;29;20134;-78
2022/10/17 03:36:52;;;;;;;1.40;1.13;;;12.80;99.90;;;;;;4913270;29;20135;-78
2022/10/17 03:39:18;;;;;;;2.55;1.30;;;12.60;99.90;;;;;;4895686;29;20080;-79
2022/10/17 03:41:43;;;;;;;2.00;1.60;;;12.80;99.90;;;;;;4881784;29;20479;-78
2022/10/17 03:44:09;;;;;;;3.08;1.45;;;13.00;99.90;;;;;;4898228;29;20044;-79
2022/10/17 03:46:34;;;;;;;2.55;1.20;;;13.00;99.90;;;;;;4879710;29;20044;-78
2022/10/17 03:49:00;;;;;;;1.90;1.55;;;13.00;99.90;;;;;;4896629;29;20127;-78
2022/10/17 03:51:26;;;;;;;2.85;1.60;;;13.10;99.90;;;;;;4898083;29;20074;-78
2022/10/17 03:53:52;;;;;;;2.70;1.73;;;12.60;99.90;;;;;;4895817;29;20036;-78
2022/10/17 03:56:22;;;;;;;2.78;1.52;;;13.00;99.90;;;;;;4881463;29;20444;-79
2022/10/17 03:58:48;;;;;;;1.95;1.10;;;12.80;99.90;;;;;;4896224;29;20040;-78
2022/10/17 04:01:15;;;;;;;;;;;13.00;99.90;;;;;;4896989;29;20047;-78
2022/10/17 04:03:41;;;;;;;1.80;1.27;;;12.60;99.90;;;;;;4879530;29;20286;-78
2022/10/17 04:06:10;;;;;;;2.17;1.20;;;12.50;99.90;;;;;;4897703;29;20047;-78
2022/10/17 04:08:35;;;;;;;1.35;1.00;;;12.70;99.90;;;;;;4896874;29;20050;-78
2022/10/17 04:11:04;;;;;;;3.20;1.13;;;13.00;99.90;;;;;;4897117;29;20040;-79
2022/10/17 04:13:30;;;;;;;1.42;1.33;;;12.50;99.90;;;;;;4893682;29;20051;-79
2022/10/17 04:15:57;;;;;;;2.38;1.50;;;12.90;99.90;;;;;;4897431;29;20043;-78
2022/10/17 04:18:23;;;;;;;1.75;1.23;;;12.70;99.90;;;;;;4884556;29;20049;-78
2022/10/17 04:20:49;;;;;;;2.72;1.70;;;12.70;99.90;;;;;;4881250;29;20063;-78
2022/10/17 04:23:15;;;;;;;1.52;1.10;;;12.60;99.90;;;;;;4895191;29;20043;-78
2022/10/17 04:25:41;;;;;;;2.38;1.10;;;12.60;99.90;;;;;;4897099;29;20098;-79
2022/10/17 04:28:06;;;;;;;1.40;1.30;;;13.10;99.90;;;;;;4896412;29;20174;-78
2022/10/17 04:30:32;;;;;;;2.28;1.30;;;13.00;99.90;;;;;;4894150;29;20500;-79
2022/10/17 04:32:58;;;;;;;1.20;1.02;;;12.60;99.90;;;;;;4895608;29;20197;-79
2022/10/17 04:35:23;;;;;;;2.03;1.30;;;12.90;99.90;;;;;;4895006;29;20053;-79
2022/10/17 04:37:49;;;;;;;1.88;1.50;;;13.00;99.90;;;;;;4880281;29;20051;-78
2022/10/17 04:40:15;;;;;;;1.50;1.30;;;12.60;99.90;;;;;;4885037;29;20041;-79
2022/10/17 04:42:40;;;;;;;2.92;1.52;;;12.90;99.90;;;;;;4895132;29;20050;-79
2022/10/17 04:45:07;;;;;;;2.35;1.13;;;12.80;99.90;;;;;;4893628;29;20263;-78
2022/10/17 04:47:32;;;;;;;1.50;1.30;;;12.70;99.90;;;;;;4881192;29;20047;-79
2022/10/17 04:49:58;;;;;;;1.50;1.15;;;13.20;99.90;;;;;;4894146;29;20048;-78
2022/10/17 04:52:24;;;;;;;1.80;1.50;;;13.10;99.90;;;;;;4894245;29;20272;-79
2022/10/17 04:54:50;;;;;;;2.05;1.35;;;13.40;99.90;;;;;;4897024;29;20078;-78
2022/10/17 04:57:16;;;;;;;1.38;1.17;;;12.80;99.90;;;;;;4894199;29;20080;-79
2022/10/17 04:59:41;;;;;;;1.45;1.35;;;13.00;99.90;;;;;;4892706;29;20052;-78
2022/10/17 05:02:07;;;;;;;2.53;1.60;;;13.50;99.90;;;;;;4879679;29;20044;-79
2022/10/17 05:04:33;;;;;;;1.75;1.20;;;13.20;99.90;;;;;;4880491;29;20183;-78
2022/10/17 05:06:58;;;;;;;1.98;1.30;;;13.40;99.90;;;;;;4895070;29;20047;-79
2022/10/17 05:09:24;;;;;;;1.65;1.30;;;13.00;99.90;;;;;;4893968;29;20095;-79
2022/10/17 05:11:50;;;;;;;1.65;1.10;;;13.50;99.90;;;;;;4878926;29;20048;-78
2022/10/17 05:14:15;;;;;;;1.60;1.27;;;13.50;99.90;;;;;;4879594;29;20060;-78
2022/10/17 05:16:41;;;;;;;1.63;1.20;;;13.50;99.90;;;;;;4893027;29;20044;-78
2022/10/17 05:19:07;;;;;;;3.13;1.20;;;13.20;99.90;;;;;;4889017;29;20053;-78
2022/10/17 05:21:32;;;;;;;1.20;1.10;;;13.80;99.90;;;;;;4888150;29;20039;-79
2022/10/17 05:23:58;;;;;;;1.25;0.93;;;13.80;99.90;;;;;;4894229;29;20056;-78
2022/10/17 05:26:25;;;;;;;1.70;1.13;;;13.50;99.90;;;;;;4887868;29;20476;-78
2022/10/17 05:28:51;;;;;;;1.35;1.10;;;13.50;99.90;;;;;;4871241;29;20505;-78
2022/10/17 05:31:18;;;;;;;1.45;1.00;;;13.10;99.90;;;;;;4914033;29;20110;-78
2022/10/17 05:33:43;;;;;;;1.50;1.10;;;13.20;99.90;;;;;;4889571;29;20561;-78
2022/10/17 05:36:09;;;;;;;2.13;1.70;;;13.90;99.90;;;;;;4917950;29;20523;-78
2022/10/17 05:38:35;;;;;;;2.20;1.70;;;13.30;99.90;;;;;;4881093;29;20055;-78
2022/10/17 05:41:03;;;;;;;1.40;1.30;;;13.90;99.90;;;;;;4895128;29;20408;-77
2022/10/17 05:43:29;;;;;;;1.90;1.50;;;13.80;99.90;;;;;;4890603;29;20055;-78
2022/10/17 05:45:55;;;;;;;2.53;1.45;;;13.50;99.90;;;;;;4899401;29;20044;-79
2022/10/17 05:48:22;;;;;;;1.77;1.23;;;13.40;99.90;;;;;;4898836;29;20393;-78
2022/10/17 05:50:48;;;;;;;1.30;1.20;;;13.40;99.90;;;;;;4898265;29;20044;-79
2022/10/17 05:53:14;;;;;;;1.88;1.30;;;13.40;99.90;;;;;;4905216;29;20051;-78
2022/10/17 05:55:40;;;;;;;;;;;14.00;99.90;;;;;;4899276;29;20036;-78
2022/10/17 05:58:05;;;;;;;2.20;1.30;;;14.00;99.90;;;;;;4898855;29;19950;-78
2022/10/17 06:00:31;;;;;;;1.60;1.50;;;13.90;99.90;;;;;;4898378;29;20506;-79
2022/10/17 06:02:57;;;;;;;1.55;1.33;;;13.50;99.90;;;;;;4895302;29;20201;-78
2022/10/17 06:05:23;;;;;;;1.45;1.30;;;13.60;99.90;;;;;;4897274;29;20592;-79
2022/10/17 06:07:51;;;;;;;1.45;1.30;;;14.20;99.90;;;;;;4904312;29;20078;-78
2022/10/17 06:10:17;;;;;;;1.65;1.50;;;13.50;99.90;;;;;;4881497;29;20054;-79
2022/10/17 06:12:43;;;;;;;;;;;13.90;99.90;;;;;;4873341;29;20051;-78
2022/10/17 06:15:09;;;;;;;1.95;1.60;;;13.70;99.90;;;;;;4900979;29;19919;-79
2022/10/17 06:17:35;;;;;;;;;;;14.20;99.90;;;;;;4897418;29;20040;-79
2022/10/17 06:20:00;;;;;;;2.28;1.70;;;13.90;99.90;;;;;;4894602;29;19926;-77
2022/10/17 06:22:26;;;;;;;1.60;1.10;;;13.70;99.90;;;;;;4897885;29;20148;-77
2022/10/17 06:24:52;;;;;;;2.38;1.60;;;13.80;99.90;;;;;;4887027;29;20056;-78
2022/10/17 06:27:18;;;;;;;2.40;1.88;;;14.30;99.90;;;;;;4902254;29;20488;-76
2022/10/17 06:29:45;;;;;;;3.55;2.38;;;13.80;99.90;;;;;;4903133;29;20082;-78
2022/10/17 06:32:11;;;;;;;2.28;1.90;;;14.60;99.90;;;;;;4894094;29;20452;-78
2022/10/17 06:34:37;;;;;;;1.88;1.55;;;14.50;99.90;;;;;;4893006;29;20044;-78
2022/10/17 06:37:02;;;;;;;1.92;1.65;;;14.10;99.90;;;;;;4898281;29;20056;-79
2022/10/17 06:39:32;;;;;;;2.30;1.70;;;14.40;99.90;;;;;;4900772;29;20155;-79
2022/10/17 06:41:59;;;;;;;2.28;1.88;;;14.00;99.90;;;;;;4899907;29;20052;-79
2022/10/17 06:44:29;;;;;;;2.92;1.90;;;14.70;99.90;;;;;;4899643;29;20055;-79
2022/10/17 06:46:55;;;;;;;2.03;1.83;;;14.80;99.90;;;;;;4899569;29;20048;-79
2022/10/17 06:49:21;;;;;;;1.83;1.45;;;14.40;99.90;;;;;;4899574;29;20461;-79
2022/10/17 06:51:47;;;;;;;1.98;1.67;;;14.80;99.90;;;;;;4898350;29;20055;-79
2022/10/17 06:54:13;;;;;;;2.25;1.80;;;14.70;99.90;;;;;;4898170;29;20044;-79
2022/10/17 06:56:38;;;;;;;2.22;1.85;;;14.30;99.90;;;;;;4879972;29;20036;-79
2022/10/17 06:59:04;;;;;;;1.85;1.70;;;14.60;99.90;;;;;;4883987;29;20552;-79
2022/10/17 07:01:30;;;;;;;3.17;1.77;;;14.80;99.90;;;;;;4883734;29;20044;-79
2022/10/17 07:03:56;;;;;;;2.40;1.33;;;14.20;99.90;;;;;;4898869;29;20048;-79
2022/10/17 07:06:25;;;;;;;1.92;1.65;;;14.20;99.90;;;;;;4882294;29;20044;-79
2022/10/17 07:08:51;;;;;;;2.10;1.70;;;14.70;99.90;;;;;;4882987;29;20052;-79
2022/10/17 07:11:21;;;;;;;1.80;1.48;;;14.90;99.90;;;;;;4898778;29;20044;-79
2022/10/17 07:13:47;;;;;;;2.92;1.70;;;14.30;99.90;;;;;;4882602;29;20078;-79
2022/10/17 07:16:14;;;;;;;1.77;1.40;;;14.70;99.90;;;;;;4898786;29;20060;-79
2022/10/17 07:18:40;;;;;;;1.65;1.40;;;14.60;99.90;;;;;;4896941;29;20122;-79
2022/10/17 07:21:07;;;;;;;1.45;1.35;;;15.10;99.90;;;;;;4882023;29;20122;-79
2022/10/17 07:23:35;;;;;;;1.65;1.40;;;15.20;99.90;;;;;;4883144;29;20393;-79
2022/10/17 07:26:05;;;;;;;1.83;1.30;;;15.00;99.90;;;;;;4882721;29;20059;-79
2022/10/17 07:28:32;;;;;;;2.10;1.90;;;14.70;99.90;;;;;;4898398;29;20106;-79
2022/10/17 07:31:11;;;;;;;2.15;1.95;;;14.60;99.90;;;;;;4897209;29;20099;-79
2022/10/17 07:33:37;;;;;;;2.25;2.03;;;15.40;99.90;;;;;;4898113;29;20127;-79
2022/10/17 07:36:04;;;;;;;2.65;2.20;;;15.50;99.90;;;;;;4897382;29;20060;-79
2022/10/17 07:38:30;;;;;;;2.47;1.73;;;15.60;99.90;;;;;;4898251;29;20147;-79
2022/10/17 07:40:57;;;;;;;;;;;15.50;99.90;;;;;;4883044;29;20099;-79
2022/10/17 07:43:24;;;;;;;2.33;1.80;;;15.10;99.90;;;;;;4898096;29;19938;-79
2022/10/17 07:45:50;;;;;;;2.85;2.17;;;15.20;99.90;;;;;;4897946;29;20055;-79
2022/10/17 07:48:16;;;;;;;2.22;1.95;;;15.20;99.90;;;;;;4898088;29;20084;-79
2022/10/17 07:50:42;;;;;;;2.83;1.85;;;16.00;99.90;;;;;;4896363;29;20052;-78
2022/10/17 07:53:07;;;;;;;3.25;2.22;;;15.60;99.90;;;;;;4896566;29;20123;-79
2022/10/17 07:55:33;;;;;;;2.20;1.73;;;16.00;99.90;;;;;;4897959;29;20050;-79
2022/10/17 07:57:59;;;;;;;2.10;1.60;;;15.90;99.90;;;;;;4898054;29;20079;-79
2022/10/17 08:00:26;;;;;;;2.67;1.83;;;16.10;99.90;;;;;;4882404;29;20052;-79
2022/10/17 08:02:51;;;;;;;1.83;1.60;;;15.80;99.90;;;;;;4896686;29;20130;-78
2022/10/17 08:05:17;;;;;;;2.42;2.15;;;16.10;99.90;;;;;;4881970;29;20135;-79
2022/10/17 08:07:43;;;;;;;1.67;1.58;;;16.10;99.90;;;;;;4897623;29;20040;-79
2022/10/17 08:10:11;;;;;;;2.72;1.95;;;15.80;99.90;;;;;;4897419;29;20114;-78
2022/10/17 08:12:37;;;;;;;3.65;2.05;;;16.20;99.90;;;;;;4882444;29;20416;-78
2022/10/17 08:15:04;;;;;;;2.30;1.90;;;16.10;99.90;;;;;;4881331;29;20384;-79
2022/10/17 08:17:30;;;;;;;2.40;1.90;;;16.20;99.90;;;;;;4897520;29;20051;-79
2022/10/17 08:19:55;;;;;;;2.58;2.13;;;16.20;99.90;;;;;;4897655;29;20040;-79
2022/10/17 08:22:21;;;;;;;2.50;1.90;;;16.50;99.90;;;;;;4896739;29;20072;-79
2022/10/17 08:24:47;;;;;;;1.98;1.77;;;16.80;99.90;;;;;;4897479;29;20084;-79
2022/10/17 08:27:13;;;;;;;2.40;2.08;;;16.40;99.90;;;;;;4882134;29;20055;-79
2022/10/17 08:29:39;;;;;;;2.30;1.98;;;16.40;99.90;;;;;;4896885;29;20138;-79
2022/10/17 08:32:06;;;;;;;1.70;1.50;;;16.90;99.90;;;;;;4897261;29;20464;-79
2022/10/17 08:34:32;;;;;;;3.40;1.80;;;16.50;99.90;;;;;;4897225;29;20107;-79
2022/10/17 08:36:58;;;;;;;2.97;1.70;;;16.90;99.90;;;;;;4897010;29;20060;-79
2022/10/17 08:39:23;;;;;;;1.83;1.50;;;17.00;99.90;;;;;;4881735;29;20098;-79
2022/10/17 08:42:04;;;;;;;2.45;1.70;;;16.90;99.90;;;;;;4896394;29;20515;-79
2022/10/17 08:44:52;;;;;;;1.65;1.55;;;16.90;99.90;;;;;;4894395;29;20048;-79
2022/10/17 08:47:32;;;;;;;2.00;1.75;;;17.00;99.90;;;;;;4878644;29;20131;-79
2022/10/17 08:50:01;;;;;;;2.13;1.73;;;17.20;99.90;;;;;;4911301;29;20102;-79
2022/10/17 08:52:51;;;;;;;2.53;1.77;;;17.30;99.90;;;;;;4896360;29;20131;-79
2022/10/17 08:55:37;;;;;;;2.20;1.80;;;17.40;99.90;;;;;;4897271;29;20040;-79
2022/10/17 08:58:34;;;;;;;2.42;1.90;;;17.20;99.90;;;;;;4881176;29;20044;-79
2022/10/17 09:01:22;;;;;;;1.88;1.70;;;17.50;99.90;;;;;;4884887;29;20567;-79
2022/10/17 09:04:25;;;;;;;2.20;1.75;;;17.40;99.90;;;;;;4897262;29;20052;-79
2022/10/17 09:07:02;;;;;;;2.30;2.10;;;17.30;99.90;;;;;;4880821;29;20135;-78
2022/10/17 09:09:33;;;;;;;2.80;1.88;;;17.40;99.90;;;;;;4896983;29;20044;-79
2022/10/17 09:12:25;;;;;;;2.17;1.98;;;17.50;99.90;;;;;;4896984;29;20649;-78
2022/10/17 09:15:15;;;;;;;5.25;2.65;;;17.20;99.90;;;;;;4894043;29;20107;-79
2022/10/17 09:17:52;;;;;;;4.35;2.15;;;17.10;99.90;;;;;;4889997;29;20508;-78
2022/10/17 09:20:22;;;;;;;3.78;2.33;;;17.40;99.90;;;;;;4900620;29;20051;-79
2022/10/17 09:23:16;;;;;;;2.95;2.50;;;17.20;99.90;;;;;;4900581;29;20075;-79
2022/10/17 09:25:46;;;;;;;3.88;3.00;;;17.60;99.90;;;;;;4904635;29;20067;-78
2022/10/17 09:28:23;;;;;;;4.25;2.60;;;17.60;99.90;;;;;;4900179;29;20040;-76
2022/10/17 09:31:19;;;;;;;4.40;3.10;;;17.30;99.90;;;;;;4897827;29;20035;-79
2022/10/17 09:33:47;;;;;;;4.50;3.00;;;17.20;99.90;;;;;;4881517;29;20127;-78
2022/10/17 09:36:19;;;;;;;5.20;4.00;;;17.70;99.90;;;;;;4870939;29;20446;-76
2022/10/17 09:38:49;;;;;;;3.30;2.80;;;17.60;99.90;;;;;;4881207;29;20044;-76
2022/10/17 09:41:19;;;;;;;7.25;3.70;;;17.60;99.90;;;;;;4895224;29;20103;-78
2022/10/17 09:43:46;;;;;;;4.72;3.58;;;17.60;99.90;;;;;;4915982;29;20388;-78
2022/10/17 09:46:36;;;;;;;4.43;3.15;;;17.70;99.90;;;;;;4892948;29;20452;-78
2022/10/17 09:49:31;;;;;;;3.90;2.92;;;17.70;99.90;;;;;;4923402;29;20059;-79
2022/10/17 09:51:57;;;;;;;3.80;3.35;;;17.60;99.90;;;;;;4898646;29;20045;-79
2022/10/17 09:54:27;;;;;;;4.95;3.78;;;17.20;99.90;;;;;;4881833;29;20052;-78
2022/10/17 09:57:06;;;;;;;4.15;3.13;;;17.20;99.90;;;;;;4899037;29;20040;-78
2022/10/17 09:59:39;;;;;;;3.78;3.03;;;17.60;99.90;;;;;;4881374;29;20051;-78
2022/10/17 10:02:07;;;;;;;3.42;3.00;;;17.50;99.90;;;;;;4894238;29;20108;-78
2022/10/17 10:04:33;;;;;;;4.03;3.42;;;17.20;99.90;;;;;;4892614;29;20544;-78
2022/10/17 10:07:05;;;;;;;4.63;3.38;;;16.90;99.90;;;;;;4875768;29;20044;-78
2022/10/17 10:09:32;;;;;;;4.13;3.20;;;16.90;99.90;;;;;;4895936;29;20047;-78
2022/10/17 10:12:03;;;;;;;3.17;2.88;;;17.20;99.90;;;;;;4898603;29;20192;-78
2022/10/17 10:14:36;;;;;;;4.50;3.00;;;16.70;99.90;;;;;;4880650;29;20051;-77
2022/10/17 10:17:05;;;;;;;5.00;3.50;;;16.50;99.90;;;;;;4912770;29;20076;-79
2022/10/17 10:19:35;;;;;;;4.22;3.20;;;16.60;99.90;;;;;;4895548;29;20075;-79
2022/10/17 10:22:16;;;;;;;6.00;3.47;;;16.50;99.90;;;;;;4882804;29;20114;-79
2022/10/17 10:24:41;;;;;;;4.47;3.00;;;17.20;99.90;;;;;;4879615;29;20177;-78
2022/10/17 10:27:14;;;;;;;3.10;2.50;;;16.30;99.90;;;;;;4899405;29;20070;-78
2022/10/17 10:29:49;;;;;;;3.00;2.65;;;17.30;99.90;;;;;;4895947;29;20063;-78
2022/10/17 10:32:27;;;;;;;2.90;2.60;;;16.30;99.90;;;;;;4895187;29;20138;-78
2022/10/17 10:34:56;;;;;;;2.60;1.80;;;17.20;99.90;;;;;;4899591;29;20048;-78
2022/10/17 10:37:52;;;;;;;2.40;1.90;;;16.10;99.90;;;;;;4895070;29;20076;-78
2022/10/17 10:40:48;;;;;;;1.83;1.73;;;16.30;99.90;;;;;;4884953;29;20520;-79
2022/10/17 10:43:35;;;;;;;2.47;1.88;;;16.30;99.90;;;;;;4899098;29;20139;-79
2022/10/17 10:46:05;;;;;;;2.00;1.70;;;16.10;99.90;;;;;;4898957;29;20048;-79
2022/10/17 10:48:45;;;;;;;3.15;2.28;;;16.10;99.90;;;;;;4882337;29;20048;-79
2022/10/17 10:51:18;;;;;;;2.58;2.35;;;16.10;99.90;;;;;;4898052;29;20048;-79
2022/10/17 10:54:00;;;;;;;2.97;2.30;;;16.10;99.90;;;;;;4898810;29;20081;-79
2022/10/17 10:56:46;;;;;;;2.13;1.92;;;16.00;99.90;;;;;;4898986;29;20192;-79
2022/10/17 10:59:35;;;;;;;2.08;1.88;;;16.00;99.90;;;;;;4891313;29;20040;-79
2022/10/17 11:02:23;;;;;;;1.83;1.48;;;16.80;99.90;;;;;;4890626;29;20127;-79
2022/10/17 11:04:56;;;;;;;2.65;1.70;;;17.30;99.90;;;;;;4896004;29;20046;-79
2022/10/17 11:07:28;;;;;;;2.03;1.63;;;17.30;99.90;;;;;;4897291;29;20472;-79
2022/10/17 11:10:25;;;;;;;1.70;1.20;;;17.30;99.90;;;;;;4898327;29;20052;-79
2022/10/17 11:13:13;;;;;;;1.45;1.30;;;16.10;99.90;;;;;;4898494;29;20357;-79
2022/10/17 11:15:46;;;;;;;1.33;1.10;;;17.20;99.90;;;;;;4895162;29;20046;-79
2022/10/17 11:18:43;;;;;;;1.73;1.17;;;16.20;99.90;;;;;;4898510;29;20404;-79
2022/10/17 11:21:18;;;;;;;2.20;1.60;;;17.20;99.90;;;;;;4898126;29;20040;-78
2022/10/17 11:24:25;;;;;;;1.50;1.30;;;16.10;99.90;;;;;;4914059;29;20138;-79
2022/10/17 11:26:59;;;;;;;2.20;1.40;;;17.50;99.90;;;;;;4871981;29;20058;-79
2022/10/17 11:29:31;;;;;;;1.83;1.13;;;17.60;99.90;;;;;;4897387;29;20126;-79
2022/10/17 11:32:04;;;;;;;2.88;1.90;;;17.50;99.90;;;;;;4897021;29;20056;-79
2022/10/17 11:34:35;;;;;;;2.03;1.70;;;16.70;99.90;;;;;;4912585;29;20060;-79
2022/10/17 11:37:08;;;;;;;3.05;1.75;;;16.30;99.90;;;;;;4897320;29;20487;-79
2022/10/17 11:39:49;;;;;;;2.30;1.90;;;17.10;99.90;;;;;;4882105;29;20087;-78
2022/10/17 11:42:23;;;;;;;4.07;2.10;;;16.20;99.90;;;;;;4896985;29;20433;-79
2022/10/17 11:44:56;;;;;;;2.85;2.00;;;17.40;99.90;;;;;;4897982;29;20058;-79
2022/10/17 11:48:07;;;;;;;2.72;2.10;;;17.00;99.90;;;;;;4897066;29;20044;-79
2022/10/17 11:50:36;;;;;;;2.40;1.98;;;17.30;99.90;;;;;;4864740;29;20052;-79
2022/10/17 11:53:22;;;;;;;2.72;2.35;;;15.90;99.90;;;;;;4879151;29;20048;-80
2022/10/17 11:55:51;;;;;;;4.10;2.65;;;17.40;99.90;;;;;;4879018;29;20123;-80
2022/10/17 11:58:35;;;;;;;3.50;2.78;;;16.80;99.90;;;;;;4879388;29;20059;-79
2022/10/17 12:01:33;;;;;;;3.60;2.72;;;16.10;99.90;;;;;;4881302;29;20403;-79
2022/10/17 12:04:39;;;;;;;3.53;2.30;;;16.30;99.90;;;;;;4897803;29;20126;-80
2022/10/17 12:07:32;;;;;;;2.67;2.10;;;16.20;99.90;;;;;;4861375;29;20060;-79
2022/10/17 12:10:23;;;;;;;2.97;2.20;;;16.20;99.90;;;;;;4881015;29;20416;-79
2022/10/17 12:12:48;;;;;;;4.05;1.95;;;17.00;99.90;;;;;;4897309;29;20496;-79
2022/10/17 12:15:23;;;;;;;2.60;1.98;;;16.30;99.90;;;;;;4897514;29;20044;-79
2022/10/17 12:18:01;;;;;;;3.03;1.80;;;16.80;99.90;;;;;;4897727;29;20508;-79
2022/10/17 12:20:37;;;;;;;2.92;2.33;;;16.40;99.90;;;;;;4890531;29;20067;-79
2022/10/17 12:23:26;;;;;;;2.70;2.25;;;16.70;99.90;;;;;;4870937;29;20052;-79
2022/10/17 12:26:00;;;;;;;2.10;1.88;;;16.40;99.90;;;;;;4898063;29;20358;-79
2022/10/17 12:28:28;;;;;;;3.08;1.92;;;17.10;99.90;;;;;;4880982;29;20132;-79
2022/10/17 12:31:02;;;;;;;4.20;2.03;;;16.80;99.90;;;;;;4890391;29;20528;-78
2022/10/17 12:33:37;;;;;;;3.15;2.33;;;16.30;99.90;;;;;;4890151;29;20048;-79
2022/10/17 12:36:21;;;;;;;2.70;2.00;;;16.50;99.90;;;;;;4904929;29;20070;-80
2022/10/17 12:38:48;;;;;;;2.40;2.03;;;17.10;99.90;;;;;;4886836;29;20056;-79
2022/10/17 12:41:14;;;;;;;2.70;2.20;;;16.90;99.90;;;;;;4885985;29;20044;-80
2022/10/17 12:43:44;;;;;;;;;;;16.40;99.90;;;;;;4916859;29;20514;-79
2022/10/17 12:46:11;;;;;;;2.67;1.75;;;17.10;99.90;;;;;;4897175;29;20062;-79
2022/10/17 12:48:37;;;;;;;3.35;2.15;;;17.30;99.90;;;;;;4894718;29;20048;-81
2022/10/17 12:51:11;;;;;;;2.20;1.90;;;17.30;99.90;;;;;;4896427;29;20067;-78
2022/10/17 12:53:36;;;;;;;2.17;1.60;;;17.30;99.90;;;;;;4900314;29;20048;-79
2022/10/17 12:56:02;;;;;;;2.72;2.00;;;16.30;99.90;;;;;;4902000;29;20040;-79
2022/10/17 12:58:29;;;;;;;2.42;1.80;;;16.40;99.90;;;;;;4885325;29;20048;-80
2022/10/17 13:00:57;;;;;;;2.30;1.88;;;17.20;99.90;;;;;;4917021;29;20044;-79
2022/10/17 13:03:30;;;;;;;3.22;1.80;;;16.50;99.90;;;;;;4901848;29;20051;-79
2022/10/17 13:06:03;;;;;;;3.25;1.73;;;16.90;99.90;;;;;;4900018;29;20488;-80
2022/10/17 13:08:32;;;;;;;2.58;1.70;;;16.90;99.90;;;;;;4901245;29;20048;-80
2022/10/17 13:11:00;;;;;;;2.13;1.60;;;16.90;99.90;;;;;;4900831;29;20515;-81